Time;durP1;ratioP1;P1;durP2;ratioP2;P2;SDS_P1;SDS_P2;PMS_P1;PMS_P2;Temp;Humidity;BMP_temperature;BMP_pressure;BME280_temperature;BME280_humidity;BME280_pressure;Samples;Min_cycle;Max_cycle;Signal;HPM_P1;HPM_P2
2022/10/02 00:00:00;;;;;;;13.00;12.30;;;;;;;18.66;100.00;99687.16;4996356;28;20026;-66
2022/10/02 00:02:32;;;;;;;12.50;11.90;;;;;;;18.63;100.00;99680.34;4995815;28;20034;-68
2022/10/02 00:05:13;;;;;;;12.90;12.20;;;;;;;18.71;100.00;99673.75;4996667;28;20496;-66
2022/10/02 00:07:51;;;;;;;13.18;12.48;;;;;;;18.62;100.00;99677.91;5005519;28;20285;-67
2022/10/02 00:10:19;;;;;;;13.23;12.52;;;;;;;18.54;100.00;99694.47;4994460;28;20022;-66
2022/10/02 00:12:48;;;;;;;12.73;12.13;;;;;;;18.62;100.00;99708.28;4997645;28;20084;-67
2022/10/02 00:15:19;;;;;;;13.02;12.32;;;;;;;18.75;100.00;99707.16;5001410;28;20114;-65
2022/10/02 00:17:47;;;;;;;12.68;12.07;;;;;;;18.72;100.00;99707.63;4997591;28;20493;-66
2022/10/02 00:20:15;;;;;;;12.35;11.75;;;;;;;18.69;100.00;99705.44;4998153;28;20164;-67
2022/10/02 00:22:56;;;;;;;13.77;12.98;;;;;;;18.73;100.00;99695.84;4988301;28;20081;-67
2022/10/02 00:25:27;;;;;;;12.40;11.80;;;;;;;18.68;100.00;99696.56;4994112;28;20030;-66
2022/10/02 00:28:17;;;;;;;12.88;12.20;;;;;;;18.67;100.00;99694.13;4991440;28;20035;-66
2022/10/02 00:30:56;;;;;;;12.98;12.27;;;;;;;18.76;100.00;99680.03;4990083;28;20038;-66
2022/10/02 00:33:43;;;;;;;12.30;11.70;;;;;;;18.76;100.00;99676.53;4997267;28;20069;-67
2022/10/02 00:36:19;;;;;;;13.15;12.45;;;;;;;18.71;100.00;99671.88;5000237;28;20042;-67
2022/10/02 00:38:56;;;;;;;12.80;12.15;;;;;;;18.61;100.00;99678.97;4993818;28;20033;-67
2022/10/02 00:42:08;;;;;;;12.60;12.00;;;;;;;18.38;100.00;99682.69;4998267;28;20096;-67
2022/10/02 00:45:00;;;;;;;12.93;12.23;;;;;;;18.42;100.00;99686.50;4997739;28;20045;-67
2022/10/02 00:47:52;;;;;;;12.43;11.82;;;;;;;18.53;100.00;99677.53;4998516;28;20025;-67
2022/10/02 00:50:40;;;;;;;12.68;12.07;;;;;;;18.57;100.00;99670.59;4999040;28;20037;-68
2022/10/02 00:53:39;;;;;;;13.40;12.70;;;;;;;18.35;100.00;99694.72;4992473;28;20434;-67
2022/10/02 00:56:17;;;;;;;14.05;13.25;;;;;;;18.25;100.00;99691.06;4997025;28;20031;-67
2022/10/02 00:59:16;;;;;;;12.93;12.32;;;;;;;18.41;100.00;99692.91;4995099;28;20055;-67
2022/10/02 01:01:51;;;;;;;12.82;12.23;;;;;;;18.47;100.00;99683.88;4999681;28;20548;-68
2022/10/02 01:04:30;;;;;;;13.48;12.77;;;;;;;18.39;100.00;99693.19;4999308;28;20037;-68
2022/10/02 01:06:56;;;;;;;13.32;12.63;;;;;;;18.38;100.00;99691.56;4997723;28;20490;-68
2022/10/02 01:09:24;;;;;;;13.02;12.32;;;;;;;18.19;100.00;99691.00;4999750;28;20054;-67
2022/10/02 01:11:50;;;;;;;13.73;13.02;;;;;;;18.22;100.00;99684.34;5000392;28;20029;-68
2022/10/02 01:14:16;;;;;;;12.85;12.18;;;;;;;18.30;100.00;99691.97;4997549;28;20035;-67
2022/10/02 01:16:43;;;;;;;13.00;12.30;;;;;;;18.23;100.00;99680.59;4993675;28;20042;-67
2022/10/02 01:19:39;;;;;;;13.25;12.55;;;;;;;18.34;100.00;99694.97;5000325;28;20034;-67
2022/10/02 01:22:39;;;;;;;12.95;12.25;;;;;;;18.22;100.00;99678.97;5002144;28;20054;-68
2022/10/02 01:25:06;;;;;;;12.75;12.10;;;;;;;18.22;100.00;99684.34;4996807;28;20029;-68
2022/10/02 01:27:33;;;;;;;13.00;12.30;;;;;;;18.11;100.00;99688.72;4997860;28;20470;-67
2022/10/02 01:30:03;;;;;;;12.60;12.00;;;;;;;18.01;100.00;99698.50;5000140;28;20033;-67
2022/10/02 01:32:28;;;;;;;13.05;12.35;;;;;;;17.92;100.00;99698.06;4998087;28;20489;-68
2022/10/02 01:34:55;;;;;;;13.25;12.55;;;;;;;17.97;100.00;99697.34;4994057;28;20100;-68
2022/10/02 01:37:28;;;;;;;12.73;12.10;;;;;;;18.11;100.00;99695.97;4987157;28;20412;-67
2022/10/02 01:39:59;;;;;;;13.30;12.60;;;;;;;18.13;100.00;99689.28;4998078;28;20082;-67
2022/10/02 01:42:24;;;;;;;13.25;12.55;;;;;;;18.09;100.00;99693.53;5001285;28;20038;-68
2022/10/02 01:44:50;;;;;;;13.00;12.30;;;;;;;18.05;100.00;99694.25;4999563;28;20044;-68
2022/10/02 01:47:56;;;;;;;12.82;12.20;;;;;;;18.20;100.00;99692.59;4988791;28;20030;-66
2022/10/02 01:50:27;;;;;;;13.68;12.98;;;;;;;18.17;100.00;99700.34;4989433;28;20071;-68
2022/10/02 01:53:21;;;;;;;12.77;12.15;;;;;;;18.08;100.00;99707.19;5001722;28;20026;-66
2022/10/02 01:56:04;;;;;;;13.10;12.40;;;;;;;18.01;100.00;99704.66;5000910;28;20029;-67
2022/10/02 01:59:04;;;;;;;12.65;12.05;;;;;;;17.99;100.00;99690.66;4995126;28;20548;-67
2022/10/02 02:01:35;;;;;;;13.05;12.35;;;;;;;18.04;100.00;99690.75;4991664;28;20736;-67
2022/10/02 02:04:23;;;;;;;13.27;12.57;;;;;;;18.19;100.00;99687.50;4994918;28;20026;-68
2022/10/02 02:07:03;;;;;;;13.48;12.77;;;;;;;18.21;100.00;99682.69;4990668;28;20080;-67
2022/10/02 02:09:50;;;;;;;12.85;12.23;;;;;;;18.14;100.00;99682.03;4991496;28;20023;-67
2022/10/02 02:12:44;;;;;;;13.10;12.40;;;;;;;18.17;100.00;99687.75;5001454;28;20033;-67
2022/10/02 02:15:24;;;;;;;13.80;13.02;;;;;;;18.13;100.00;99681.22;4987109;28;20115;-67
2022/10/02 02:18:27;;;;;;;13.13;12.43;;;;;;;18.10;100.00;99675.53;5000549;28;20037;-67
2022/10/02 02:20:57;;;;;;;12.55;11.95;;;;;;;18.07;100.00;99673.38;4968667;28;20050;-68
2022/10/02 02:23:27;;;;;;;13.00;12.30;;;;;;;18.12;100.00;99670.75;4994927;28;20033;-67
2022/10/02 02:25:58;;;;;;;12.90;12.20;;;;;;;18.07;100.00;99674.16;4992340;28;20054;-67
2022/10/02 02:28:26;;;;;;;13.30;12.60;;;;;;;18.04;100.00;99676.50;4991995;28;20222;-68
2022/10/02 02:30:54;;;;;;;13.02;12.32;;;;;;;18.07;100.00;99673.38;4994481;28;20717;-67
2022/10/02 02:33:52;;;;;;;12.63;12.02;;;;;;;18.02;100.00;99684.81;5002513;28;20481;-67
2022/10/02 02:36:23;;;;;;;12.55;11.93;;;;;;;18.02;100.00;99684.81;4997426;28;20038;-68
2022/10/02 02:38:57;;;;;;;12.60;12.00;;;;;;;17.92;100.00;99690.00;4996826;28;20873;-68
2022/10/02 02:41:26;;;;;;;;;;;;;;;17.94;100.00;99687.91;4995329;28;20522;-68
2022/10/02 02:44:01;;;;;;;13.07;12.38;;;;;;;17.91;100.00;99683.81;4991770;28;20000;-68
2022/10/02 02:47:02;;;;;;;13.27;12.57;;;;;;;17.92;100.00;99690.84;4991402;28;20069;-67
2022/10/02 02:49:25;;;;;;;12.93;12.23;;;;;;;17.87;100.00;99695.31;4996127;28;20101;-67
2022/10/02 02:51:53;;;;;;;12.90;12.25;;;;;;;17.79;100.00;99693.84;4996348;28;20026;-66
2022/10/02 02:54:34;;;;;;;13.00;12.30;;;;;;;17.69;100.00;99701.66;4997660;28;20058;-67
2022/10/02 02:57:04;;;;;;;13.02;12.32;;;;;;;17.68;100.00;99697.34;4994470;28;20030;-67
2022/10/02 02:59:31;;;;;;;13.20;12.50;;;;;;;17.59;100.00;99698.81;4995533;28;20549;-66
2022/10/02 03:01:57;;;;;;;13.10;12.40;;;;;;;17.71;100.00;99701.47;4995004;28;20097;-68
2022/10/02 03:04:23;;;;;;;13.75;13.05;;;;;;;17.73;100.00;99697.47;4998224;28;20154;-68
2022/10/02 03:06:54;;;;;;;12.90;12.30;;;;;;;17.68;100.00;99705.41;4997170;28;20082;-68
2022/10/02 03:09:22;;;;;;;13.52;12.82;;;;;;;17.65;100.00;99698.66;4993566;28;20034;-68
2022/10/02 03:12:08;;;;;;;13.48;12.77;;;;;;;17.74;100.00;99701.78;4989528;28;20030;-68
2022/10/02 03:14:52;;;;;;;13.90;13.10;;;;;;;17.82;100.00;99700.56;4991008;28;20034;-67
2022/10/02 03:17:18;;;;;;;13.18;12.48;;;;;;;17.75;100.00;99700.72;4996618;28;20438;-67
2022/10/02 03:19:55;;;;;;;13.50;12.77;;;;;;;17.65;100.00;99703.22;4993185;28;20093;-68
2022/10/02 03:22:43;;;;;;;13.10;12.40;;;;;;;17.75;100.00;99706.09;4999733;28;20026;-67
2022/10/02 03:25:14;;;;;;;13.02;12.32;;;;;;;17.80;100.00;99698.13;4994586;28;20117;-68
2022/10/02 03:27:51;;;;;;;13.63;12.85;;;;;;;17.77;100.00;99703.16;4993067;28;20460;-67
2022/10/02 03:30:19;;;;;;;13.30;12.60;;;;;;;17.76;100.00;99698.84;4998431;28;20033;-68
2022/10/02 03:32:46;;;;;;;13.13;12.43;;;;;;;17.72;100.00;99698.53;4996587;28;20407;-67
2022/10/02 03:35:13;;;;;;;14.13;13.32;;;;;;;17.61;100.00;99694.81;4988292;28;20037;-66
2022/10/02 03:37:48;;;;;;;12.45;11.85;;;;;;;17.63;100.00;99699.97;4995530;28;20114;-66
2022/10/02 03:40:14;;;;;;;13.10;12.40;;;;;;;17.45;100.00;99700.16;4991188;28;20038;-66
2022/10/02 03:42:40;;;;;;;13.32;12.63;;;;;;;17.49;100.00;99704.00;4996016;28;20022;-68
2022/10/02 03:45:07;;;;;;;13.30;12.60;;;;;;;17.51;100.00;99715.28;4987104;28;20033;-68
2022/10/02 03:47:32;;;;;;;13.27;12.57;;;;;;;17.62;100.00;99723.25;4988183;28;20041;-68
2022/10/02 03:49:58;;;;;;;13.55;12.85;;;;;;;17.55;100.00;99721.78;4994094;28;20385;-67
2022/10/02 03:52:24;;;;;;;12.68;12.07;;;;;;;17.50;100.00;99719.03;5000762;28;20104;-68
2022/10/02 03:54:56;;;;;;;12.70;12.10;;;;;;;17.56;100.00;99731.47;5006326;28;20048;-66
2022/10/02 03:57:24;;;;;;;13.95;13.15;;;;;;;17.50;100.00;99735.91;4995531;28;20022;-68
2022/10/02 04:00:13;;;;;;;13.50;12.80;;;;;;;17.53;100.00;99723.88;4989765;28;20461;-66
2022/10/02 04:02:42;;;;;;;14.48;13.65;;;;;;;17.56;100.00;99726.94;4988411;28;20038;-67
2022/10/02 04:05:27;;;;;;;14.43;13.63;;;;;;;17.45;100.00;99735.81;4996153;28;20105;-67
2022/10/02 04:07:58;;;;;;;13.65;12.93;;;;;;;17.44;100.00;99746.78;4991433;28;20117;-68
2022/10/02 04:10:35;;;;;;;13.18;12.48;;;;;;;17.46;100.00;99739.31;5005865;28;20551;-68
2022/10/02 04:13:18;;;;;;;13.18;12.48;;;;;;;17.39;100.00;99750.97;4998947;28;20118;-67
2022/10/02 04:15:51;;;;;;;13.13;12.43;;;;;;;17.42;100.00;99756.94;4994574;28;20026;-68
2022/10/02 04:18:23;;;;;;;13.18;12.48;;;;;;;17.35;100.00;99760.56;4994220;28;20030;-68
2022/10/02 04:20:57;;;;;;;13.23;12.52;;;;;;;17.42;100.00;99781.88;4997926;28;20565;-68
2022/10/02 04:23:28;;;;;;;13.45;12.75;;;;;;;17.38;100.00;99784.22;4995686;28;20389;-67
2022/10/02 04:26:06;;;;;;;12.82;12.18;;;;;;;17.32;100.00;99785.16;4991831;28;20033;-68
2022/10/02 04:28:40;;;;;;;13.25;12.55;;;;;;;17.57;100.00;99790.22;4997840;28;20033;-66
2022/10/02 04:31:12;;;;;;;12.60;12.00;;;;;;;17.44;100.00;99785.13;4993699;28;20113;-67
2022/10/02 04:33:38;;;;;;;13.02;12.32;;;;;;;17.45;100.00;99800.16;4999857;28;20030;-67
2022/10/02 04:36:16;;;;;;;13.55;12.82;;;;;;;17.30;100.00;99795.31;4997828;28;20050;-67
2022/10/02 04:39:06;;;;;;;12.80;12.13;;;;;;;17.40;100.00;99811.59;5000066;28;20034;-67
2022/10/02 04:42:45;;;;;;;13.65;12.85;;;;;;;17.47;100.00;99813.34;4997895;28;20030;-67
2022/10/02 04:45:16;;;;;;;13.77;13.02;;;;;;;17.49;100.00;99822.78;4865182;29;20059;-67
2022/10/02 04:47:42;;;;;;;12.68;12.07;;;;;;;17.40;100.00;99825.00;4920823;29;20043;-67
2022/10/02 04:50:10;;;;;;;13.38;12.68;;;;;;;17.38;100.00;99819.06;4984447;28;20521;-67
2022/10/02 04:52:35;;;;;;;13.57;12.88;;;;;;;17.28;100.00;99829.59;5001927;28;20033;-67
2022/10/02 04:55:19;;;;;;;13.55;12.85;;;;;;;17.13;100.00;99829.25;4995970;28;20037;-67
2022/10/02 04:58:13;;;;;;;14.15;13.35;;;;;;;17.09;100.00;99836.94;4997724;28;20022;-67
2022/10/02 05:00:51;;;;;;;13.85;13.10;;;;;;;17.10;100.00;99837.75;4993817;28;20038;-67
2022/10/02 05:03:22;;;;;;;13.85;13.05;;;;;;;17.03;100.00;99837.88;4999406;28;20384;-68
2022/10/02 05:06:14;;;;;;;13.88;13.10;;;;;;;16.88;100.00;99820.63;4998690;28;20117;-67
2022/10/02 05:09:01;;;;;;;13.57;12.88;;;;;;;16.75;100.00;99822.50;4995557;28;20038;-67
2022/10/02 05:11:42;;;;;;;14.13;13.32;;;;;;;16.63;100.00;99831.53;4996987;28;20022;-67
2022/10/02 05:14:13;;;;;;;13.50;12.80;;;;;;;16.69;100.00;99847.53;4999313;28;20721;-67
2022/10/02 05:17:21;;;;;;;13.93;13.13;;;;;;;16.80;100.00;99860.09;4997245;28;20030;-68
2022/10/02 05:20:02;;;;;;;14.15;13.35;;;;;;;16.56;100.00;99861.91;4993667;28;20022;-67
2022/10/02 05:22:51;;;;;;;14.88;13.98;;;;;;;16.62;100.00;99864.72;5000255;28;20052;-66
2022/10/02 05:26:01;;;;;;;14.02;13.23;;;;;;;16.71;100.00;99869.53;5000036;28;20398;-67
2022/10/02 05:28:52;;;;;;;14.57;13.77;;;;;;;16.73;100.00;99866.63;4994274;28;20022;-68
2022/10/02 05:31:42;;;;;;;13.63;12.93;;;;;;;16.48;100.00;99866.78;4994047;28;20112;-67
2022/10/02 05:34:14;;;;;;;13.95;13.15;;;;;;;16.33;100.00;99853.84;5000401;28;20851;-67
2022/10/02 05:36:51;;;;;;;14.13;13.32;;;;;;;16.24;100.00;99857.88;4993412;28;20041;-68
2022/10/02 05:39:31;;;;;;;13.40;12.70;;;;;;;16.36;100.00;99864.06;5001245;28;20029;-67
2022/10/02 05:42:30;;;;;;;13.27;12.57;;;;;;;16.33;100.00;99861.88;4996911;28;20042;-68
2022/10/02 05:45:02;;;;;;;13.68;12.98;;;;;;;16.19;100.00;99861.22;4996131;28;20108;-66
2022/10/02 05:47:31;;;;;;;13.60;12.90;;;;;;;16.17;100.00;99875.91;4998381;28;20033;-66
2022/10/02 05:50:12;;;;;;;13.65;12.95;;;;;;;16.23;100.00;99886.50;4986670;28;20142;-67
2022/10/02 05:52:41;;;;;;;13.80;13.05;;;;;;;16.09;100.00;99892.28;4999502;28;20038;-67
2022/10/02 05:55:28;;;;;;;13.82;13.05;;;;;;;16.32;100.00;99887.00;4999137;28;20045;-68
2022/10/02 05:58:05;;;;;;;13.70;13.00;;;;;;;16.30;100.00;99886.38;4998745;28;20041;-67
2022/10/02 06:00:41;;;;;;;13.50;12.80;;;;;;;16.17;100.00;99898.13;4993083;28;20033;-66
2022/10/02 06:03:42;;;;;;;14.45;13.65;;;;;;;16.33;100.00;99902.00;5003206;28;20468;-67
2022/10/02 06:06:20;;;;;;;13.40;12.70;;;;;;;16.24;100.00;99909.56;4993397;28;20075;-67
2022/10/02 06:08:52;;;;;;;13.70;13.00;;;;;;;16.07;100.00;99913.88;4999493;28;20037;-67
2022/10/02 06:11:41;;;;;;;13.90;13.10;;;;;;;16.10;100.00;99905.41;4996779;28;20540;-67
2022/10/02 06:14:33;;;;;;;14.27;13.48;;;;;;;16.25;100.00;99911.19;4988092;28;20033;-67
2022/10/02 06:17:10;;;;;;;13.70;13.00;;;;;;;16.21;100.00;99930.59;4999828;28;20022;-66
2022/10/02 06:19:50;;;;;;;13.52;12.82;;;;;;;16.32;100.00;99929.84;5002284;28;20211;-66
2022/10/02 06:22:22;;;;;;;13.95;13.15;;;;;;;15.92;100.00;99942.88;4999718;28;20109;-67
2022/10/02 06:24:57;;;;;;;13.45;12.75;;;;;;;15.97;100.00;99943.84;5005235;28;20037;-66
2022/10/02 06:27:36;;;;;;;12.90;12.30;;;;;;;15.97;100.00;99959.91;4999168;28;20084;-66
2022/10/02 06:30:04;;;;;;;13.45;12.75;;;;;;;16.02;100.00;99975.28;4992683;28;20034;-67
2022/10/02 06:32:36;;;;;;;13.60;12.90;;;;;;;15.97;100.00;99986.66;4993847;28;20033;-66
2022/10/02 06:35:10;;;;;;;14.40;13.60;;;;;;;16.08;100.00;100001.13;4997613;28;20022;-68
2022/10/02 06:37:40;;;;;;;14.83;13.93;;;;;;;16.19;100.00;100008.41;4999096;28;20038;-67
2022/10/02 06:40:10;;;;;;;13.50;12.80;;;;;;;16.14;100.00;100010.94;4991296;28;20058;-67
2022/10/02 06:42:51;;;;;;;14.40;13.60;;;;;;;16.25;100.00;100026.25;4994519;28;20050;-67
2022/10/02 06:45:48;;;;;;;14.25;13.45;;;;;;;16.48;100.00;100033.59;4989702;28;20065;-67
2022/10/02 06:48:33;;;;;;;14.27;13.48;;;;;;;16.54;100.00;100034.56;4995275;28;20038;-68
2022/10/02 06:51:02;;;;;;;14.35;13.55;;;;;;;16.35;100.00;100027.59;5000618;28;20378;-67
2022/10/02 06:53:55;;;;;;;15.10;14.20;;;;;;;16.50;100.00;100020.78;4994306;28;20413;-67
2022/10/02 06:56:33;;;;;;;14.43;13.63;;;;;;;16.56;100.00;100019.91;4990530;28;20030;-68
2022/10/02 06:59:18;;;;;;;13.80;13.10;;;;;;;16.74;100.00;100021.75;4993583;28;20034;-67
2022/10/02 07:02:28;;;;;;;14.38;13.57;;;;;;;16.70;100.00;100020.56;4994170;28;20030;-67
2022/10/02 07:05:15;;;;;;;14.55;13.75;;;;;;;16.27;100.00;100026.03;4993455;28;20034;-67
2022/10/02 07:07:59;;;;;;;14.68;13.82;;;;;;;16.37;100.00;100030.84;4997011;28;20025;-69
2022/10/02 07:10:42;;;;;;;14.70;13.88;;;;;;;16.52;100.00;100034.78;4994461;28;20037;-68
2022/10/02 07:13:36;;;;;;;14.02;13.23;;;;;;;16.59;100.00;100022.13;4991509;28;20023;-68
2022/10/02 07:16:19;;;;;;;14.55;13.75;;;;;;;16.71;100.00;100037.47;4991133;28;20022;-68
2022/10/02 07:19:05;;;;;;;13.65;12.95;;;;;;;16.16;100.00;100030.28;4997453;28;20109;-67
2022/10/02 07:22:04;;;;;;;14.85;14.02;;;;;;;15.90;100.00;100041.25;4995304;28;20440;-67
2022/10/02 07:24:57;;;;;;;14.00;13.30;;;;;;;15.91;100.00;100053.59;4990158;28;20106;-64
2022/10/02 07:27:28;;;;;;;15.02;14.15;;;;;;;16.21;100.00;100053.69;4998892;28;20112;-63
2022/10/02 07:30:14;;;;;;;13.70;13.00;;;;;;;16.23;100.00;100054.28;4994936;28;20204;-64
2022/10/02 07:33:01;;;;;;;13.95;13.25;;;;;;;16.00;100.00;100045.03;4992193;28;20131;-62
2022/10/02 07:35:45;;;;;;;14.45;13.65;;;;;;;16.05;100.00;100063.13;4993641;28;20042;-62
2022/10/02 07:38:41;;;;;;;14.27;13.48;;;;;;;16.01;100.00;100062.75;4995633;28;20540;-63
2022/10/02 07:41:40;;;;;;;14.32;13.52;;;;;;;16.14;100.00;100059.09;4992642;28;20719;-63
2022/10/02 07:44:12;;;;;;;14.50;13.70;;;;;;;15.94;100.00;100061.19;4987857;28;20096;-63
2022/10/02 07:46:40;;;;;;;14.30;13.50;;;;;;;15.93;100.00;100073.72;4993256;28;20117;-63
2022/10/02 07:49:35;;;;;;;14.65;13.85;;;;;;;16.00;100.00;100073.66;5000670;28;20040;-63
2022/10/02 07:52:18;;;;;;;15.15;14.25;;;;;;;15.84;100.00;100068.88;5000828;28;20504;-63
2022/10/02 07:54:50;;;;;;;15.35;14.45;;;;;;;15.69;100.00;100082.59;4998414;28;20436;-63
2022/10/02 07:57:25;;;;;;;14.85;13.95;;;;;;;15.87;100.00;100082.66;4996927;28;20099;-65
2022/10/02 07:59:53;;;;;;;13.98;13.20;;;;;;;15.92;100.00;100073.94;4999860;28;20037;-64
2022/10/02 08:02:31;;;;;;;13.68;12.98;;;;;;;15.97;100.00;100076.78;4996007;28;20040;-63
2022/10/02 08:05:00;;;;;;;14.60;13.80;;;;;;;15.84;100.00;100061.69;4999461;28;20428;-63
2022/10/02 08:07:28;;;;;;;14.32;13.52;;;;;;;16.08;100.00;100077.91;4996579;28;20052;-64
2022/10/02 08:09:58;;;;;;;13.80;13.10;;;;;;;16.73;100.00;100072.88;5001977;28;20113;-63
2022/10/02 08:13:06;;;;;;;14.65;13.80;;;;;;;19.28;100.00;100076.75;5000643;28;20058;-63
2022/10/02 08:15:36;;;;;;;13.23;12.52;;;;;;;18.54;100.00;100073.19;4956392;28;20046;-64
2022/10/02 08:18:12;;;;;;;14.02;13.25;;;;;;;21.19;100.00;100072.63;4941250;28;20042;-63
2022/10/02 08:20:42;;;;;;;14.93;14.10;;;;;;;23.01;100.00;100082.13;4981370;28;20038;-64
2022/10/02 08:23:20;;;;;;;13.30;12.60;;;;;;;23.24;98.47;100072.69;4994159;28;20065;-64
2022/10/02 08:25:53;;;;;;;15.10;14.30;;;;;;;23.08;95.42;100075.38;5002082;28;20026;-66
2022/10/02 08:28:34;;;;;;;12.80;12.20;;;;;;;24.65;88.71;100097.16;4997312;28;20034;-64
2022/10/02 08:31:02;;;;;;;13.18;12.55;;;;;;;24.02;89.45;100081.34;4997395;28;20518;-64
2022/10/02 08:33:30;;;;;;;12.80;12.20;;;;;;;24.08;88.69;100074.81;4999361;28;20104;-62
2022/10/02 08:36:09;;;;;;;13.75;13.05;;;;;;;23.94;85.14;100069.19;5001904;28;20050;-63
2022/10/02 08:38:38;;;;;;;13.88;13.18;;;;;;;;;;5001467;28;20026;-63
2022/10/02 08:41:54;;;;;;;13.88;13.18;;;;;;;23.18;91.25;100080.00;4995797;28;20041;-63
2022/10/02 08:44:49;;;;;;;14.18;13.48;;;;;;;21.98;93.44;100058.41;4963589;28;20521;-63
2022/10/02 08:47:26;;;;;;;14.15;13.43;;;;;;;22.73;92.68;100075.28;4952628;28;20043;-63
2022/10/02 08:50:13;;;;;;;14.68;13.88;;;;;;;23.49;89.68;100080.81;4994669;28;20490;-63
2022/10/02 08:52:45;;;;;;;14.10;13.40;;;;;;;23.46;87.89;100057.00;4991900;28;20129;-63
2022/10/02 08:55:33;;;;;;;14.75;13.95;;;;;;;23.36;85.37;100073.25;4996306;28;20042;-63
2022/10/02 08:58:26;;;;;;;15.50;14.60;;;;;;;24.01;81.23;100068.06;4990025;28;20034;-64
2022/10/02 09:01:16;;;;;;;13.43;12.80;;;;;;;22.88;84.31;100023.94;4995466;28;20113;-64
2022/10/02 09:03:44;;;;;;;13.98;13.27;;;;;;;23.27;81.05;100088.38;4991405;28;20089;-64
2022/10/02 09:06:21;;;;;;;13.90;13.20;;;;;;;22.98;83.04;100058.31;4994454;28;20141;-63
2022/10/02 09:09:24;;;;;;;13.85;13.15;;;;;;;22.84;78.18;100057.97;4998933;28;20066;-63
2022/10/02 09:12:29;;;;;;;14.68;13.88;;;;;;;22.84;80.85;100066.09;4994622;28;20501;-64
2022/10/02 09:15:14;;;;;;;13.52;12.82;;;;;;;24.39;73.18;100083.72;4997312;28;20091;-63
2022/10/02 09:17:56;;;;;;;14.45;13.65;;;;;;;24.28;72.19;100084.78;4989753;28;20057;-64
2022/10/02 09:20:40;;;;;;;12.85;12.25;;;;;;;23.47;77.96;100068.63;4997002;28;20029;-64
2022/10/02 09:23:33;;;;;;;13.63;12.93;;;;;;;23.34;77.49;100049.13;4988247;28;20038;-64
2022/10/02 09:26:39;;;;;;;13.75;13.05;;;;;;;22.50;84.83;100060.31;4992630;28;20034;-63
2022/10/02 09:29:05;;;;;;;13.68;12.98;;;;;;;21.66;89.40;100056.56;4985373;28;20049;-62
2022/10/02 09:32:12;;;;;;;13.60;12.90;;;;;;;21.05;92.48;100071.41;4996100;28;20115;-63
2022/10/02 09:34:40;;;;;;;13.95;13.25;;;;;;;20.74;93.27;100056.81;4974355;28;20050;-64
2022/10/02 09:37:27;;;;;;;15.35;14.45;;;;;;;20.60;95.35;100057.19;4989556;28;20100;-68
2022/10/02 09:40:47;;;;;;;14.35;13.57;;;;;;;20.48;96.03;100061.06;4991647;28;20045;-65
2022/10/02 09:43:24;;;;;;;14.05;13.35;;;;;;;20.14;97.32;100056.59;4932984;29;20035;-66
2022/10/02 09:46:20;;;;;;;16.77;15.73;;;;;;;20.06;98.64;100057.03;4984633;28;20053;-67
2022/10/02 09:49:32;;;;;;;13.88;13.18;;;;;;;20.41;99.01;100055.84;4987198;28;20079;-66
2022/10/02 09:52:21;;;;;;;14.18;13.38;;;;;;;20.51;98.89;100057.91;4964824;28;20045;-67
2022/10/02 09:55:17;;;;;;;13.30;12.60;;;;;;;20.43;94.87;100045.66;4993312;28;20034;-67
2022/10/02 09:58:19;;;;;;;13.85;13.15;;;;;;;19.99;97.42;100056.38;4991480;28;20033;-68
2022/10/02 10:01:03;;;;;;;14.30;13.50;;;;;;;20.18;97.30;100038.03;4992832;28;20029;-67
2022/10/02 10:03:38;;;;;;;15.10;14.20;;;;;;;19.75;97.74;100038.78;4989826;28;20514;-67
2022/10/02 10:06:25;;;;;;;13.82;13.13;;;;;;;19.79;96.11;100023.78;4992472;28;20033;-67
2022/10/02 10:08:53;;;;;;;13.35;12.65;;;;;;;19.68;95.49;100024.69;4992211;28;20425;-67
2022/10/02 10:11:48;;;;;;;13.10;12.50;;;;;;;19.74;94.01;100007.56;4989753;28;20030;-66
2022/10/02 10:14:58;;;;;;;15.07;14.20;;;;;;;19.86;94.46;100021.75;4988263;28;21088;-67
2022/10/02 10:17:42;;;;;;;13.80;13.10;;;;;;;20.04;97.11;100009.84;4994799;28;20088;-67
2022/10/02 10:20:39;;;;;;;12.95;12.32;;;;;;;20.12;96.42;100009.41;4991967;28;20445;-67
2022/10/02 10:23:19;;;;;;;13.07;12.38;;;;;;;19.70;93.61;100017.22;4992349;28;20101;-67
2022/10/02 10:26:05;;;;;;;13.75;13.05;;;;;;;19.66;94.77;100035.72;4991145;28;20037;-67
2022/10/02 10:29:06;;;;;;;13.55;12.85;;;;;;;20.00;91.71;100032.97;4996333;28;20031;-63
2022/10/02 10:31:59;;;;;;;13.48;12.77;;;;;;;20.04;89.38;100039.47;4990781;28;20385;-67
2022/10/02 10:34:44;;;;;;;13.55;12.85;;;;;;;20.13;89.02;100019.16;4991034;28;20083;-66
2022/10/02 10:40:13;;;;;;;13.02;12.43;;;;;;;19.63;90.46;100051.53;4989140;28;20580;-67
2022/10/02 10:42:50;;;;;;;13.75;13.05;;;;;;;19.90;90.47;100043.56;4994665;28;20026;-67
2022/10/02 10:46:05;;;;;;;13.00;12.40;;;;;;;19.45;92.85;100060.63;4989373;28;20045;-67
2022/10/02 10:48:59;;;;;;;13.02;12.43;;;;;;;19.31;93.91;100057.44;4961969;28;20045;-68
2022/10/02 10:51:52;;;;;;;14.48;13.68;;;;;;;19.41;94.64;100067.56;4991277;28;21346;-67
2022/10/02 10:54:26;;;;;;;13.98;13.20;;;;;;;19.38;94.17;100068.84;4991295;28;20076;-67
2022/10/02 10:56:59;;;;;;;13.57;12.88;;;;;;;19.52;93.87;100072.03;4996778;28;20758;-67
2022/10/02 11:00:02;;;;;;;13.80;13.10;;;;;;;19.47;90.60;100069.28;4993983;28;20506;-68
2022/10/02 11:02:39;;;;;;;13.55;12.85;;;;;;;19.56;89.11;100039.03;4986464;28;20523;-67
2022/10/02 11:05:30;;;;;;;16.00;15.00;;;;;;;19.18;88.88;100037.06;4988025;28;20038;-66
2022/10/02 11:08:26;;;;;;;13.73;13.02;;;;;;;19.49;87.20;100051.84;4992212;28;20041;-67
2022/10/02 11:11:20;;;;;;;13.52;12.82;;;;;;;19.94;82.25;100044.72;4994834;28;20041;-67
2022/10/02 11:13:59;;;;;;;13.77;13.07;;;;;;;19.99;83.36;100061.78;4989810;28;20017;-68
2022/10/02 11:17:01;;;;;;;13.90;13.18;;;;;;;19.95;85.53;100052.53;4988647;28;20516;-67
2022/10/02 11:19:55;;;;;;;13.35;12.65;;;;;;;20.09;87.66;100044.94;4991624;28;20089;-66
2022/10/02 11:23:00;;;;;;;14.57;13.77;;;;;;;19.83;89.26;100051.81;4991860;28;20030;-67
2022/10/02 11:25:26;;;;;;;14.32;13.52;;;;;;;20.08;88.61;100048.69;4994697;28;20105;-67
2022/10/02 11:28:22;;;;;;;12.75;12.15;;;;;;;19.88;88.73;100049.22;4994288;28;20042;-67
2022/10/02 11:31:08;;;;;;;13.75;13.02;;;;;;;19.66;88.82;100043.78;4991311;28;20035;-67
2022/10/02 11:33:37;;;;;;;13.70;13.00;;;;;;;19.28;90.72;100045.31;4962876;28;20048;-67
2022/10/02 11:36:20;;;;;;;13.43;12.73;;;;;;;19.29;92.38;100062.25;4990027;28;20046;-67
2022/10/02 11:39:31;;;;;;;14.13;13.33;;;;;;;19.53;91.70;100060.22;4988517;28;20409;-65
2022/10/02 11:42:18;;;;;;;13.70;13.00;;;;;;;19.27;91.17;100062.50;4989420;28;20260;-67
2022/10/02 11:45:27;;;;;;;13.82;13.13;;;;;;;20.08;89.50;100051.38;4992006;28;20506;-67
2022/10/02 11:48:19;;;;;;;14.25;13.45;;;;;;;20.20;87.67;100068.25;4969039;28;20125;-67
2022/10/02 11:51:14;;;;;;;13.30;12.60;;;;;;;20.82;87.06;100081.44;4989290;28;20409;-67
2022/10/02 11:54:11;;;;;;;13.93;13.15;;;;;;;20.66;84.80;100072.34;4991954;28;20506;-68
2022/10/02 11:57:13;;;;;;;13.50;12.80;;;;;;;20.87;84.08;100078.78;4990187;28;20465;-69
2022/10/02 12:00:04;;;;;;;13.60;12.90;;;;;;;20.35;84.64;100068.47;4992002;28;20037;-67
2022/10/02 12:02:37;;;;;;;13.15;12.45;;;;;;;20.37;86.18;100081.66;4992851;28;20045;-67
2022/10/02 12:05:08;;;;;;;14.43;13.63;;;;;;;20.00;87.45;100076.03;4989701;28;20027;-68
2022/10/02 12:07:45;;;;;;;13.25;12.55;;;;;;;20.30;87.39;100079.16;4996351;28;20108;-68
2022/10/02 12:10:32;;;;;;;13.63;12.93;;;;;;;20.08;88.49;100056.78;4985279;28;20034;-68
2022/10/02 12:13:30;;;;;;;13.18;12.48;;;;;;;20.36;87.23;100077.34;4994986;28;20031;-68
2022/10/02 12:16:36;;;;;;;13.70;13.00;;;;;;;20.15;87.91;100060.91;4986576;28;20056;-67